Pagina principale
METAR-TAF:

METAR-TAF

Aeroporti :

Udine, Italia

Aeroporto di Rivolto

latitudine: 45-59N, longitudine: 013-02E, altezza: 51 m

Osservazione

Il bollettino è stato emesso 49 minuti fa, alle 05:55 UTC
Vento 7 kt da nord/nord-est
Temperature 18°C
Umidità 68%
Pressione 1004 hPa
Visibilità 10 km o più
Poco nuvoloso ad un'altezza di 4000 ft
Nubi sparse ad un'altezza di 5000 ft

METAR: LIPI 260555Z 02007KT 9999 FEW040 SCT050 18/12 Q1004 RMK SCT VIS MIN 9999 WIND THR06 /////KT WIND THR24 02006KT BLU

Ora: 08:44 (06:44 UTC)

Previsione

Il bollettino è stato emesso 1 ora e 43 minuti fa, alle 05:01 UTC
Previsione valida dal 26 alle 06 UTC al 26 alle 15 UTC
Vento 5 kt da nord
Visibilità 10 km o più
Poco nuvoloso ad un'altezza di 7000 ft
Probabilità 40% :
Temporaneamente
dal 26 alle 10 UTC al 26 alle 15 UTC
Nubi sparse ad un'altezza di 3000 ft
rovesci di pioggia

TAF: LIPI 260501Z 2606/2615 01005KT 9999 FEW070 PROB40 TEMPO 2610/2615 SHRA SCT030

Osservazioni e previsioni meteorologiche di più di 4000 aeroporti (messaggi METAR e TAF).

Le stazioni disponibili sono rappresentate dai dischi gialli e rossi sulla carta.

Puntare il mouse per vedere il nome della stazione.

Clicca sopra per visualizzare le osservazioni e previsioni meteorologiche.

Per cambiare la mappa : fare clic sui pulsanti verdi con una croce nera per ingrandire, il pulsante verde con un trattino per diminuire, o sulla freccia verde per le mappe adiacenti.


METAR-TAF: